Hartford, KS (66854)

6:28 PM CDT on June 28, 2017 (GMT -0500)
LeboWurm | | Change Station

Elev 1155 ft 38.40 °N, 95.86 °W | Updated 1 second ago

Clear
Clear
87.8 °F
Feels Like 91 °F
N
10.5
Wind Variable Wind from SW
Gusts 15.0 mph

Today
High -- | Low -- °F
--% Chance of Precip.
Yesterday
High -- | Low -- °F
Precip. -- in
Pressure 29.72 in
Visibility 10.0 miles
Clouds Mostly Cloudy 5500 ft
Heat Index 91 °F
Dew Point 67 °F
Humidity 50%
Rainfall 0.00 in
Snow Depth Not available.
6:02 AM 8:51 PM
Waxing Crescent, 29% visible
METAR KEMP 282253Z AUTO 19018G26KT 10SM BKN055 31/21 A2976 RMK AO2 PK WND 16029/2200 SLP064 T03110211
Pressure 29.72 in
Visibility 10.0 miles
Clouds Mostly Cloudy 5500 ft
Heat Index 91 °F
Dew Point 67 °F
Humidity 50%
Rainfall 0.00 in
Snow Depth Not available.
6:02 AM 8:51 PM
Waxing Crescent, 29% visible
METAR KEMP 282253Z AUTO 19018G26KT 10SM BKN055 31/21 A2976 RMK AO2 PK WND 16029/2200 SLP064 T03110211

Get Severe Weather Alerts

Thanks for signing up!

Be on the lookout for a verification email in your inbox.

You'll start receiving the daily forecast at 6 AM.

×

10-Day Weather Forecast

Almanac

Astronomy

Jun. 28, 2017 Rise Set
Actual Time
Civil Twilight
Nautical Twilight
Astronomical Twilight
Moon
Length of Visible Light
Length of Day
Tomorrow will be .
, % of the Moon is Illuminated

Today's Extremes

State Highs State Lows

Community

WunderPhotos

Category 6

Welcome to Category 6. This is the collective home for Weather Underground's featured writeups by Dr. Jeff Masters (right), Bob Henson (left), Chris Burt, and other regular contributors.

Nearby

Air Quality

  Air Quality AQ Index Pollutant
Not available.

Snow Depth

Station Depth Elevation

Earthquake Activity

City Distance Mag. Time & Date
Minimum magnitude displayed is 2.5.

Coastal Water Temperatures

Place Temperature

Stations

Nearby Weather Stations

Station Location Temp. Windchill Dew Point Humidity Wind Precip. Elev Updated Type
                   

Watches & Warnings

There are currently no watches in effect.